Time;durP1;ratioP1;P1;durP2;ratioP2;P2;SDS_P1;SDS_P2;PMS_P1;PMS_P2;Temp;Humidity;BMP_temperature;BMP_pressure;BME280_temperature;BME280_humidity;BME280_pressure;Samples;Min_cycle;Max_cycle;Signal;HPM_P1;HPM_P2
2022/01/09 00:00:51;;;;;;;52.38;29.80;;;22.30;38.70;;;;;;6231035;28;83265;-66
2022/01/09 00:03:52;;;;;;;52.03;29.33;;;22.30;39.20;;;;;;6229085;28;84405;-66
2022/01/09 00:06:53;;;;;;;56.97;31.23;;;22.30;39.40;;;;;;6228692;28;83027;-66
2022/01/09 00:09:55;;;;;;;61.35;35.30;;;22.30;39.50;;;;;;6211064;27;86100;-66
2022/01/09 00:12:56;;;;;;;57.85;33.33;;;22.30;39.50;;;;;;6227931;28;84165;-66
2022/01/09 00:15:56;;;;;;;60.05;31.92;;;22.30;39.80;;;;;;6228727;28;82978;-67
2022/01/09 00:18:57;;;;;;;55.35;32.38;;;22.30;39.50;;;;;;6217697;27;83616;-67
2022/01/09 00:21:57;;;;;;;54.08;31.17;;;22.30;39.70;;;;;;6239694;28;83098;-66
2022/01/09 00:24:58;;;;;;;57.25;31.23;;;22.30;40.20;;;;;;6232400;27;83043;-66
2022/01/09 00:27:58;;;;;;;60.72;32.70;;;22.30;39.70;;;;;;6223656;28;83505;-66
2022/01/09 00:30:59;;;;;;;52.25;29.52;;;22.20;39.50;;;;;;6215965;28;85392;-67
2022/01/09 00:33:59;;;;;;;62.55;35.13;;;22.20;39.40;;;;;;6226914;28;83526;-67
2022/01/09 00:37:00;;;;;;;66.88;37.15;;;22.20;39.50;;;;;;6227281;28;90136;-66
2022/01/09 00:40:01;;;;;;;64.95;34.95;;;22.20;39.70;;;;;;6229372;28;84372;-66
2022/01/09 00:43:01;;;;;;;61.83;35.03;;;22.20;39.60;;;;;;6216227;28;83638;-67
2022/01/09 00:46:02;;;;;;;62.28;35.35;;;22.20;39.70;;;;;;6230457;27;84113;-67
2022/01/09 00:49:02;;;;;;;62.88;35.97;;;22.20;39.80;;;;;;6229932;28;83149;-67
2022/01/09 00:52:03;;;;;;;62.28;33.90;;;22.20;39.50;;;;;;6227060;27;83160;-66
2022/01/09 00:55:03;;;;;;;66.07;34.92;;;22.20;39.90;;;;;;6213500;28;83366;-67
2022/01/09 00:58:04;;;;;;;63.90;36.17;;;22.20;39.20;;;;;;6214857;27;83443;-66
2022/01/09 01:01:04;;;;;;;60.63;34.58;;;22.20;38.80;;;;;;6244500;28;83570;-66
2022/01/09 01:04:05;;;;;;;65.88;35.08;;;22.20;38.90;;;;;;6230462;28;83130;-65
2022/01/09 01:07:05;;;;;;;59.10;33.38;;;22.20;39.40;;;;;;6222018;28;84800;-65
2022/01/09 01:10:06;;;;;;;61.70;36.05;;;22.20;39.60;;;;;;6231752;28;83060;-65
2022/01/09 01:13:06;;;;;;;63.60;33.50;;;22.20;39.10;;;;;;6232395;27;84446;-65
2022/01/09 01:16:07;;;;;;;58.83;33.45;;;22.20;39.20;;;;;;6219061;28;83410;-65
2022/01/09 01:19:10;;;;;;;61.53;33.25;;;22.10;39.30;;;;;;6223906;28;85539;-66
2022/01/09 01:22:11;;;;;;;63.20;34.30;;;22.20;39.50;;;;;;6242368;27;82900;-66
2022/01/09 01:25:11;;;;;;;61.40;35.25;;;22.20;39.20;;;;;;6228310;28;83571;-67
2022/01/09 01:28:12;;;;;;;57.28;31.55;;;22.20;38.80;;;;;;6213729;28;83206;-66
2022/01/09 01:31:12;;;;;;;56.83;32.22;;;22.10;38.90;;;;;;6212502;28;82919;-66
2022/01/09 01:34:14;;;;;;;52.38;30.35;;;22.10;38.90;;;;;;6212098;28;82872;-67
2022/01/09 01:37:14;;;;;;;52.97;28.92;;;22.10;38.90;;;;;;6228957;28;82805;-66
2022/01/09 01:40:15;;;;;;;53.22;28.48;;;22.10;39.50;;;;;;6212142;27;84658;-66
2022/01/09 01:43:15;;;;;;;43.10;23.45;;;22.10;39.10;;;;;;6231399;28;82916;-66
2022/01/09 01:46:16;;;;;;;43.28;23.77;;;22.10;39.30;;;;;;6228967;28;83513;-67
2022/01/09 01:49:16;;;;;;;39.55;23.60;;;22.10;39.20;;;;;;6221316;28;83468;-66
2022/01/09 01:52:17;;;;;;;41.58;22.67;;;22.10;39.80;;;;;;6229720;28;83266;-67
2022/01/09 01:55:17;;;;;;;39.72;22.20;;;22.10;39.30;;;;;;6227708;28;83175;-67
2022/01/09 01:58:18;;;;;;;38.72;21.98;;;22.10;39.50;;;;;;6219443;28;83205;-68
2022/01/09 02:01:18;;;;;;;40.60;23.05;;;22.10;39.30;;;;;;6224912;28;84598;-66
2022/01/09 02:04:19;;;;;;;40.50;22.45;;;22.10;39.30;;;;;;6217669;28;83634;-66
2022/01/09 02:07:19;;;;;;;40.00;22.80;;;22.10;39.90;;;;;;6220168;28;83613;-66
2022/01/09 02:10:20;;;;;;;43.45;23.75;;;22.10;39.30;;;;;;6231832;28;82949;-67
2022/01/09 02:13:21;;;;;;;41.85;24.08;;;22.10;39.10;;;;;;6217745;28;83625;-66
2022/01/09 02:16:22;;;;;;;44.03;24.02;;;22.10;38.80;;;;;;6231098;28;83135;-66
2022/01/09 02:19:23;;;;;;;43.25;24.65;;;22.10;39.00;;;;;;6218325;28;82984;-66
2022/01/09 02:22:24;;;;;;;43.65;25.13;;;22.10;38.40;;;;;;6232204;28;83329;-66
2022/01/09 02:25:26;;;;;;;44.60;24.08;;;22.10;37.80;;;;;;6228645;27;83108;-66
2022/01/09 02:28:26;;;;;;;47.22;25.15;;;22.10;38.00;;;;;;6215559;28;87846;-67
2022/01/09 02:31:27;;;;;;;45.63;26.00;;;22.10;38.00;;;;;;6230681;28;83653;-67
2022/01/09 02:34:27;;;;;;;42.17;25.15;;;22.10;37.90;;;;;;6223802;28;83756;-67
2022/01/09 02:37:28;;;;;;;44.25;24.05;;;22.10;37.90;;;;;;6228420;28;82857;-67
2022/01/09 02:40:28;;;;;;;49.05;24.65;;;22.10;37.50;;;;;;6232534;28;83107;-67
2022/01/09 02:43:29;;;;;;;44.97;25.30;;;22.10;37.60;;;;;;6235605;27;83208;-67
2022/01/09 02:47:00;;;;;;;40.40;23.45;;;22.00;37.30;;;;;;6219725;28;83108;-67
2022/01/09 02:50:13;;;;;;;44.17;25.67;;;22.10;37.30;;;;;;6224834;27;84367;-66
2022/01/09 02:53:17;;;;;;;44.50;25.77;;;22.10;37.20;;;;;;6224492;28;83189;-66
2022/01/09 02:56:20;;;;;;;44.63;25.35;;;22.10;36.70;;;;;;6223316;28;83075;-66
2022/01/09 02:59:21;;;;;;;45.88;26.23;;;22.10;36.60;;;;;;6225055;27;82865;-66
2022/01/09 03:02:21;;;;;;;44.42;25.40;;;22.10;36.10;;;;;;6219969;27;84069;-66
2022/01/09 03:05:22;;;;;;;47.53;25.80;;;22.10;36.50;;;;;;6231777;27;83564;-66
2022/01/09 03:08:22;;;;;;;47.58;25.95;;;22.10;36.30;;;;;;6216879;28;83218;-66
2022/01/09 03:11:23;;;;;;;44.03;25.20;;;22.10;36.60;;;;;;6232126;28;82920;-63
2022/01/09 03:14:23;;;;;;;51.58;29.05;;;22.10;35.50;;;;;;6232921;28;83277;-62
2022/01/09 03:17:25;;;;;;;54.75;29.48;;;22.10;34.90;;;;;;6217524;28;84244;-63
2022/01/09 03:20:26;;;;;;;50.85;28.83;;;22.10;34.90;;;;;;6215537;28;83197;-63
2022/01/09 03:23:26;;;;;;;51.58;28.92;;;22.20;34.90;;;;;;6215250;28;83478;-63
2022/01/09 03:26:27;;;;;;;53.47;29.58;;;22.20;35.70;;;;;;6230657;28;83397;-63
2022/01/09 03:29:27;;;;;;;51.28;29.17;;;22.30;34.90;;;;;;6225699;28;82977;-63
2022/01/09 03:32:28;;;;;;;55.95;30.38;;;22.30;35.20;;;;;;6227017;27;83185;-63
2022/01/09 03:35:28;;;;;;;58.65;30.95;;;22.40;34.80;;;;;;6230019;28;83225;-63
2022/01/09 03:38:29;;;;;;;55.35;29.90;;;22.40;34.80;;;;;;6228071;28;84085;-63
2022/01/09 03:41:29;;;;;;;59.33;31.25;;;22.50;34.70;;;;;;6230804;28;82981;-64
2022/01/09 03:44:30;;;;;;;58.70;31.88;;;22.50;34.50;;;;;;6234753;27;82775;-63
2022/01/09 03:47:30;;;;;;;55.25;30.60;;;22.50;34.50;;;;;;6243162;28;84294;-63
2022/01/09 03:50:32;;;;;;;57.35;31.50;;;22.50;34.50;;;;;;6229960;28;83576;-63
2022/01/09 03:53:33;;;;;;;58.70;32.42;;;22.60;35.00;;;;;;6231037;28;83467;-63
2022/01/09 03:56:33;;;;;;;57.35;30.75;;;22.60;34.50;;;;;;6231206;28;85556;-62
2022/01/09 03:59:34;;;;;;;66.13;32.40;;;22.60;34.50;;;;;;6239584;27;83232;-62
2022/01/09 04:02:34;;;;;;;62.72;34.58;;;22.60;34.70;;;;;;6230712;27;83486;-63
2022/01/09 04:05:35;;;;;;;56.00;32.05;;;22.70;34.50;;;;;;6230353;28;82967;-62
2022/01/09 04:08:35;;;;;;;60.28;32.42;;;22.60;34.50;;;;;;6231344;28;84080;-61
2022/01/09 04:11:39;;;;;;;57.80;32.53;;;22.70;34.30;;;;;;6224896;28;83099;-62
2022/01/09 04:14:39;;;;;;;56.42;31.27;;;22.70;34.30;;;;;;6228254;28;83549;-63
2022/01/09 04:20:40;;;;;;;62.92;33.03;;;22.70;34.20;;;;;;6223718;28;89780;-63
2022/01/09 04:23:41;;;;;;;59.67;32.95;;;22.70;34.20;;;;;;6228441;27;83293;-63
2022/01/09 04:26:41;;;;;;;61.70;34.20;;;22.70;34.20;;;;;;6233767;28;82991;-64
2022/01/09 04:29:42;;;;;;;65.40;35.15;;;22.70;34.10;;;;;;6239538;27;83034;-62
2022/01/09 04:32:42;;;;;;;59.35;32.63;;;22.80;34.20;;;;;;6228781;28;83025;-67
2022/01/09 04:35:43;;;;;;;61.40;34.10;;;22.80;34.10;;;;;;6230193;28;83602;-63
2022/01/09 04:38:43;;;;;;;61.38;33.65;;;22.80;34.10;;;;;;6227442;28;83482;-64
2022/01/09 04:41:44;;;;;;;63.88;35.72;;;22.80;34.00;;;;;;6229224;28;83014;-64
2022/01/09 04:44:44;;;;;;;66.82;35.72;;;22.80;33.90;;;;;;6230002;28;83663;-65
2022/01/09 04:47:48;;;;;;;59.75;34.10;;;22.80;33.90;;;;;;6220156;28;84334;-64
2022/01/09 04:50:51;;;;;;;63.78;35.15;;;22.80;33.70;;;;;;6246058;27;84201;-64
2022/01/09 04:53:52;;;;;;;58.20;34.00;;;22.90;33.70;;;;;;6228032;28;83319;-64
2022/01/09 04:56:52;;;;;;;59.55;33.13;;;22.90;34.00;;;;;;6226319;28;84077;-64
2022/01/09 04:59:53;;;;;;;59.10;34.20;;;22.90;33.60;;;;;;6228221;28;83534;-65
2022/01/09 05:02:54;;;;;;;60.63;33.63;;;22.80;33.30;;;;;;6222026;28;83440;-64
2022/01/09 05:05:54;;;;;;;62.13;34.53;;;22.90;33.30;;;;;;6228387;28;83186;-65
2022/01/09 05:08:55;;;;;;;64.10;36.22;;;22.90;33.20;;;;;;6220413;28;83038;-68
2022/01/09 05:11:55;;;;;;;65.80;36.22;;;22.90;33.20;;;;;;6218380;27;83012;-67
2022/01/09 05:14:56;;;;;;;66.18;35.58;;;22.90;33.40;;;;;;6219148;28;83167;-68
2022/01/09 05:18:00;;;;;;;63.25;36.53;;;22.90;33.40;;;;;;6227020;28;83546;-69
2022/01/09 05:21:00;;;;;;;63.03;35.75;;;22.90;33.20;;;;;;6228685;28;83998;-68
2022/01/09 05:24:01;;;;;;;69.53;38.25;;;22.90;33.40;;;;;;6218699;28;83697;-67
2022/01/09 05:27:01;;;;;;;74.47;40.15;;;22.90;33.50;;;;;;6222768;28;83391;-70
2022/01/09 05:30:02;;;;;;;68.28;38.20;;;22.90;33.30;;;;;;6218460;28;83561;-68
2022/01/09 05:33:02;;;;;;;65.90;37.83;;;23.00;33.40;;;;;;6225879;28;83807;-69
2022/01/09 05:36:03;;;;;;;73.78;40.92;;;23.00;33.60;;;;;;6218222;28;83413;-68
2022/01/09 05:39:03;;;;;;;73.13;40.65;;;23.00;33.70;;;;;;6219113;28;84299;-69
2022/01/09 05:42:04;;;;;;;70.65;40.05;;;23.00;34.10;;;;;;6216537;28;83261;-68
2022/01/09 05:45:07;;;;;;;75.13;40.45;;;23.00;34.40;;;;;;6221900;27;83138;-68
2022/01/09 05:48:08;;;;;;;69.35;38.38;;;23.00;34.80;;;;;;6212653;28;84679;-67
2022/01/09 05:51:08;;;;;;;69.95;39.20;;;23.00;35.10;;;;;;6225488;27;83309;-65
2022/01/09 05:54:09;;;;;;;65.60;36.33;;;23.00;35.10;;;;;;6223351;28;83337;-64
2022/01/09 05:57:09;;;;;;;57.97;32.50;;;23.00;36.00;;;;;;6215483;28;83071;-65
2022/01/09 06:00:10;;;;;;;47.03;27.45;;;23.00;37.60;;;;;;6216182;27;84293;-64
2022/01/09 06:03:19;;;;;;;40.85;24.77;;;23.00;39.00;;;;;;6223226;28;85652;-66
2022/01/09 06:06:19;;;;;;;37.75;22.77;;;23.00;39.80;;;;;;6220371;28;83062;-64
2022/01/09 06:09:20;;;;;;;43.60;25.05;;;23.00;40.10;;;;;;6213658;28;83472;-64
2022/01/09 06:12:20;;;;;;;42.00;23.15;;;22.90;40.20;;;;;;6218209;28;84428;-65
2022/01/09 06:15:21;;;;;;;37.25;21.90;;;22.90;40.60;;;;;;6215702;28;83015;-65
2022/01/09 06:18:21;;;;;;;37.47;20.98;;;22.90;40.70;;;;;;6230059;28;84596;-66
2022/01/09 06:21:22;;;;;;;38.63;22.65;;;22.90;40.80;;;;;;6225937;28;83587;-65
2022/01/09 06:24:22;;;;;;;40.60;22.90;;;22.90;41.00;;;;;;6223934;28;83300;-65
2022/01/09 06:27:23;;;;;;;39.25;23.02;;;22.90;41.50;;;;;;6211381;28;83170;-64
2022/01/09 06:30:24;;;;;;;36.00;20.48;;;22.80;41.10;;;;;;6224299;28;83919;-64
2022/01/09 06:33:24;;;;;;;39.13;22.00;;;22.80;41.50;;;;;;6219529;27;83615;-63
2022/01/09 06:36:25;;;;;;;37.17;21.02;;;22.70;41.30;;;;;;6223052;28;83422;-63
2022/01/09 06:39:25;;;;;;;37.28;20.17;;;22.70;41.90;;;;;;6224627;28;83145;-63
2022/01/09 06:42:26;;;;;;;33.60;19.52;;;22.70;42.10;;;;;;6223258;28;83267;-62
2022/01/09 06:45:27;;;;;;;32.45;19.10;;;22.70;42.40;;;;;;6224411;28;84320;-63
2022/01/09 06:48:27;;;;;;;38.38;21.58;;;22.70;42.70;;;;;;6223505;28;84277;-63
2022/01/09 06:51:28;;;;;;;40.38;21.73;;;22.60;43.20;;;;;;6226045;28;83086;-61
2022/01/09 06:54:28;;;;;;;39.58;21.15;;;22.60;43.30;;;;;;6231770;28;82784;-63
2022/01/09 06:57:29;;;;;;;38.67;22.63;;;22.60;43.40;;;;;;6213075;28;84065;-64
2022/01/09 07:00:29;;;;;;;42.63;22.67;;;22.60;43.70;;;;;;6230725;27;83099;-64
2022/01/09 07:03:30;;;;;;;43.92;25.70;;;22.60;44.00;;;;;;6226349;28;82999;-64
2022/01/09 07:06:30;;;;;;;44.47;25.55;;;22.60;44.10;;;;;;6230681;28;83654;-64
2022/01/09 07:09:31;;;;;;;51.85;26.25;;;22.60;44.50;;;;;;6219859;28;83706;-65
2022/01/09 07:12:31;;;;;;;46.63;27.17;;;22.60;44.90;;;;;;6231615;28;83340;-65
2022/01/09 07:15:32;;;;;;;47.72;27.95;;;22.50;45.00;;;;;;6216892;27;83375;-65
2022/01/09 07:18:32;;;;;;;47.80;25.98;;;22.50;45.20;;;;;;6229564;27;82890;-65
2022/01/09 07:21:33;;;;;;;41.28;24.88;;;22.50;45.60;;;;;;6230400;27;84535;-65
2022/01/09 07:24:33;;;;;;;42.00;22.60;;;22.50;45.50;;;;;;6231492;28;83323;-66
2022/01/09 07:27:34;;;;;;;37.85;22.73;;;22.50;45.60;;;;;;6231588;28;83461;-66
2022/01/09 07:30:34;;;;;;;38.65;21.33;;;22.50;45.70;;;;;;6229369;28;82954;-65
2022/01/09 07:33:35;;;;;;;42.35;22.38;;;22.50;45.70;;;;;;6230175;28;83606;-66
2022/01/09 07:36:35;;;;;;;35.15;20.67;;;22.50;45.60;;;;;;6230594;28;83409;-66
2022/01/09 07:39:36;;;;;;;41.70;21.75;;;22.50;45.70;;;;;;6220381;28;84484;-66
2022/01/09 07:42:36;;;;;;;37.33;20.70;;;22.40;45.40;;;;;;6213715;28;83475;-66
2022/01/09 07:45:38;;;;;;;32.88;19.42;;;22.40;45.60;;;;;;6213348;28;83617;-66
2022/01/09 07:48:39;;;;;;;38.40;21.13;;;22.40;45.70;;;;;;6229348;28;83808;-66
2022/01/09 07:51:39;;;;;;;35.33;21.13;;;22.30;45.50;;;;;;6215503;28;83498;-66
2022/01/09 07:54:40;;;;;;;34.88;20.33;;;22.40;45.50;;;;;;6229445;28;84437;-63
2022/01/09 07:57:40;;;;;;;33.50;19.83;;;22.40;45.30;;;;;;6222800;28;83629;-67
2022/01/09 08:00:43;;;;;;;35.83;20.50;;;22.40;45.20;;;;;;6227153;28;83034;-67
2022/01/09 08:03:43;;;;;;;49.80;21.52;;;22.40;45.30;;;;;;6228484;28;83529;-68
2022/01/09 08:06:44;;;;;;;34.78;20.58;;;22.40;44.90;;;;;;6221224;28;83233;-67
2022/01/09 08:09:45;;;;;;;35.13;19.70;;;22.40;44.90;;;;;;6215840;28;83467;-65
2022/01/09 08:12:45;;;;;;;36.75;20.65;;;22.40;44.80;;;;;;6220146;28;90071;-68
2022/01/09 08:15:46;;;;;;;33.42;20.25;;;22.40;44.50;;;;;;6228730;28;83185;-67
2022/01/09 08:18:46;;;;;;;46.20;23.02;;;22.30;44.30;;;;;;6226487;28;85504;-67
2022/01/09 08:21:47;;;;;;;39.28;21.80;;;22.40;44.50;;;;;;6231050;28;83523;-67
2022/01/09 08:24:49;;;;;;;37.80;22.55;;;22.40;44.80;;;;;;6213279;28;84280;-68
2022/01/09 08:27:50;;;;;;;39.03;22.67;;;22.40;44.90;;;;;;6229512;28;83340;-66
2022/01/09 08:30:50;;;;;;;39.88;21.85;;;22.50;45.20;;;;;;6216135;28;83216;-67
2022/01/09 08:33:51;;;;;;;44.70;20.42;;;22.50;45.30;;;;;;6215018;28;83524;-67
2022/01/09 08:36:51;;;;;;;36.58;20.00;;;22.50;45.40;;;;;;6227356;28;84020;-67
2022/01/09 08:39:52;;;;;;;33.17;19.55;;;22.60;45.00;;;;;;6219902;28;83252;-67
2022/01/09 08:42:53;;;;;;;32.78;18.98;;;22.70;44.50;;;;;;6228078;28;83523;-66
2022/01/09 08:45:54;;;;;;;32.72;18.55;;;22.80;44.60;;;;;;6219748;28;83444;-66
2022/01/09 08:48:54;;;;;;;36.25;19.98;;;22.90;44.10;;;;;;6215457;28;83506;-64
2022/01/09 08:51:55;;;;;;;33.50;19.65;;;23.10;43.90;;;;;;6215738;28;83162;-63
2022/01/09 08:54:55;;;;;;;34.17;19.30;;;23.20;43.60;;;;;;6221756;28;83849;-63
2022/01/09 08:57:59;;;;;;;35.70;20.13;;;23.40;43.70;;;;;;6226808;28;83191;-65
2022/01/09 09:00:59;;;;;;;30.75;18.25;;;23.50;43.50;;;;;;6220030;28;85323;-62
2022/01/09 09:04:00;;;;;;;37.67;19.23;;;23.60;43.30;;;;;;6216509;28;83160;-63
2022/01/09 09:07:00;;;;;;;29.80;18.80;;;23.70;42.60;;;;;;6214603;28;83538;-64
2022/01/09 09:10:04;;;;;;;33.35;18.15;;;23.90;42.50;;;;;;6220186;28;83180;-63
2022/01/09 09:13:04;;;;;;;34.97;18.63;;;24.00;42.30;;;;;;6222548;28;83619;-63
2022/01/09 09:16:05;;;;;;;26.63;16.52;;;24.10;42.40;;;;;;6219448;28;83218;-63
2022/01/09 09:19:05;;;;;;;35.63;17.83;;;24.10;42.20;;;;;;6221071;28;83721;-63
2022/01/09 09:22:06;;;;;;;30.73;17.85;;;24.30;42.20;;;;;;6219482;28;82968;-64
2022/01/09 09:25:06;;;;;;;28.75;16.80;;;24.30;41.60;;;;;;6220701;28;85184;-66
2022/01/09 09:28:07;;;;;;;47.42;25.38;;;24.30;41.50;;;;;;6226251;28;85955;-66
2022/01/09 09:31:07;;;;;;;104.15;51.08;;;24.30;41.40;;;;;;6214844;28;83134;-65
2022/01/09 09:34:08;;;;;;;109.78;54.55;;;24.30;40.70;;;;;;6225506;28;83301;-66
2022/01/09 09:37:09;;;;;;;92.78;48.08;;;24.40;41.60;;;;;;6229608;28;83244;-66
2022/01/09 09:40:09;;;;;;;75.43;40.55;;;24.40;41.60;;;;;;6225126;28;83967;-65
2022/01/09 09:43:10;;;;;;;68.82;35.72;;;24.40;41.40;;;;;;6227581;28;83419;-64
2022/01/09 09:46:10;;;;;;;66.78;32.58;;;24.50;41.80;;;;;;6223070;28;84267;-66
2022/01/09 09:49:11;;;;;;;58.13;29.42;;;24.50;42.30;;;;;;6223097;28;89420;-65
2022/01/09 09:52:15;;;;;;;52.92;27.30;;;24.60;42.70;;;;;;6213796;28;82808;-65
2022/01/09 09:55:16;;;;;;;68.80;35.10;;;24.60;42.70;;;;;;6209662;28;85650;-64
2022/01/09 09:58:16;;;;;;;99.35;52.78;;;24.70;42.60;;;;;;6214362;28;83145;-64
2022/01/09 10:01:17;;;;;;;149.13;75.40;;;24.70;42.50;;;;;;6226068;28;83025;-64
2022/01/09 10:04:17;;;;;;;140.73;71.95;;;24.80;42.60;;;;;;6211464;28;83489;-65
2022/01/09 10:07:18;;;;;;;128.38;64.68;;;24.80;43.00;;;;;;6228003;28;83394;-68
2022/01/09 10:10:18;;;;;;;102.88;52.25;;;24.90;43.10;;;;;;6225906;28;83343;-66
2022/01/09 10:13:19;;;;;;;89.50;44.53;;;24.90;43.30;;;;;;6211065;28;83158;-66
2022/01/09 10:16:20;;;;;;;70.35;37.63;;;25.00;43.20;;;;;;6223481;27;83215;-65
2022/01/09 10:19:20;;;;;;;68.35;36.33;;;25.00;43.30;;;;;;6210735;28;83025;-66
2022/01/09 10:22:21;;;;;;;59.42;32.90;;;25.10;43.10;;;;;;6232073;27;83539;-66
2022/01/09 10:25:21;;;;;;;56.45;29.80;;;25.10;42.90;;;;;;6225044;27;85288;-66
2022/01/09 10:28:23;;;;;;;43.58;24.27;;;25.10;43.10;;;;;;6220586;28;82961;-67
2022/01/09 10:31:23;;;;;;;48.78;26.42;;;25.20;43.30;;;;;;6220940;28;84183;-68
2022/01/09 10:34:24;;;;;;;36.13;21.73;;;25.20;43.20;;;;;;6229370;28;83809;-64
2022/01/09 10:37:24;;;;;;;38.38;20.73;;;25.30;43.10;;;;;;6217884;28;84401;-63
2022/01/09 10:40:29;;;;;;;42.00;22.15;;;25.30;42.90;;;;;;6229004;28;83261;-64
2022/01/09 10:43:29;;;;;;;32.17;17.60;;;25.30;43.00;;;;;;6231213;28;88354;-64
2022/01/09 10:46:32;;;;;;;31.35;17.58;;;25.40;43.20;;;;;;6222810;28;83247;-69
2022/01/09 10:49:32;;;;;;;27.85;15.50;;;25.50;43.40;;;;;;6224801;27;83215;-72
2022/01/09 10:52:38;;;;;;;25.13;14.65;;;25.50;43.30;;;;;;6228172;28;83377;-72
2022/01/09 10:55:38;;;;;;;26.73;14.93;;;25.50;42.60;;;;;;6228544;28;82974;-70
2022/01/09 10:58:39;;;;;;;27.60;13.82;;;25.50;42.40;;;;;;6222030;27;83314;-62
2022/01/09 11:01:39;;;;;;;21.92;12.38;;;25.60;42.50;;;;;;6229192;28;82991;-67
2022/01/09 11:04:40;;;;;;;18.58;12.10;;;25.70;42.60;;;;;;6230338;27;83236;-64
2022/01/09 11:07:41;;;;;;;22.25;12.75;;;25.70;42.70;;;;;;6227845;28;85983;-64
2022/01/09 11:10:41;;;;;;;21.98;12.40;;;25.70;42.70;;;;;;6225125;27;83375;-65
2022/01/09 11:13:42;;;;;;;21.63;12.68;;;25.70;42.90;;;;;;6222557;28;83346;-65
2022/01/09 11:16:47;;;;;;;21.77;12.68;;;25.80;43.00;;;;;;6230629;28;83288;-65
2022/01/09 11:19:49;;;;;;;17.33;11.03;;;25.80;43.00;;;;;;6217110;28;84218;-64
2022/01/09 11:22:49;;;;;;;18.10;10.73;;;25.80;43.20;;;;;;6215377;28;83142;-65
2022/01/09 11:25:51;;;;;;;19.05;10.90;;;25.80;43.40;;;;;;6214965;28;83082;-64
2022/01/09 11:28:51;;;;;;;17.80;10.07;;;25.80;43.70;;;;;;6218074;28;83188;-64
2022/01/09 11:31:52;;;;;;;18.58;10.30;;;25.70;43.30;;;;;;6226933;28;82945;-64
2022/01/09 11:34:52;;;;;;;18.02;10.55;;;25.70;43.00;;;;;;6231174;27;82816;-66
2022/01/09 11:37:53;;;;;;;21.15;10.35;;;25.70;42.60;;;;;;6229957;28;82918;-66
2022/01/09 11:40:53;;;;;;;21.55;9.77;;;25.70;42.80;;;;;;6220931;28;85352;-65
2022/01/09 11:43:54;;;;;;;16.60;9.77;;;25.70;43.00;;;;;;6221435;28;83204;-68
2022/01/09 11:46:54;;;;;;;15.27;9.57;;;25.70;43.30;;;;;;6220441;28;80864;-65
2022/01/09 11:49:57;;;;;;;18.15;9.43;;;25.70;43.80;;;;;;6232505;27;81551;-65
2022/01/09 11:52:58;;;;;;;17.38;9.07;;;25.70;44.00;;;;;;6225910;27;80835;-64
2022/01/09 11:55:59;;;;;;;14.00;9.38;;;25.70;44.30;;;;;;6217646;28;81707;-65
2022/01/09 11:58:59;;;;;;;16.23;10.95;;;25.70;43.90;;;;;;6232303;28;80309;-64
2022/01/09 12:02:00;;;;;;;22.65;12.70;;;25.70;42.60;;;;;;6230264;28;83102;-65
2022/01/09 12:05:02;;;;;;;20.83;12.38;;;25.60;41.30;;;;;;6229869;28;84111;-64
2022/01/09 12:08:03;;;;;;;19.30;12.23;;;25.60;40.20;;;;;;6221347;28;83089;-64
2022/01/09 12:11:04;;;;;;;20.60;11.90;;;25.60;39.80;;;;;;6228420;28;83243;-63
2022/01/09 12:14:05;;;;;;;19.52;10.70;;;25.60;39.50;;;;;;6228519;28;83199;-64
2022/01/09 12:17:05;;;;;;;16.75;9.88;;;25.60;39.70;;;;;;6229366;28;83127;-64
2022/01/09 12:20:07;;;;;;;16.58;9.80;;;25.60;40.50;;;;;;6225719;28;86788;-64
2022/01/09 12:23:08;;;;;;;12.13;8.23;;;25.70;41.20;;;;;;6228983;28;81437;-64
2022/01/09 12:26:08;;;;;;;16.48;8.05;;;25.70;41.40;;;;;;6227615;28;81173;-62
2022/01/09 12:29:09;;;;;;;16.42;8.20;;;25.70;42.20;;;;;;6232789;27;80666;-64
2022/01/09 12:32:09;;;;;;;10.25;6.85;;;25.60;42.10;;;;;;6215969;27;81224;-63
2022/01/09 12:35:10;;;;;;;11.95;6.60;;;25.60;42.10;;;;;;6222365;27;80701;-64
2022/01/09 12:38:10;;;;;;;9.38;5.32;;;25.70;42.20;;;;;;6221216;28;82903;-65
2022/01/09 12:41:11;;;;;;;7.30;4.75;;;25.70;42.10;;;;;;6219973;28;81537;-67
2022/01/09 12:44:11;;;;;;;7.68;5.25;;;25.70;42.00;;;;;;6229775;27;80708;-64
2022/01/09 12:47:12;;;;;;;7.45;4.65;;;25.70;42.40;;;;;;6217295;28;81764;-66
2022/01/09 12:50:12;;;;;;;5.60;4.07;;;25.60;42.30;;;;;;6249180;27;80525;-65
2022/01/09 12:53:13;;;;;;;7.57;3.95;;;25.60;42.20;;;;;;6219388;28;80363;-64
2022/01/09 12:56:13;;;;;;;5.25;3.78;;;25.50;43.20;;;;;;6217863;28;82547;-65
2022/01/09 12:59:14;;;;;;;7.05;4.38;;;25.50;42.50;;;;;;6232546;28;80558;-64
2022/01/09 13:02:14;;;;;;;5.68;3.92;;;25.50;42.30;;;;;;6224640;28;81766;-63
2022/01/09 13:05:15;;;;;;;6.75;3.75;;;25.50;42.40;;;;;;6226715;28;81707;-65
2022/01/09 13:08:16;;;;;;;6.25;3.80;;;25.40;42.70;;;;;;6221033;28;81753;-64
2022/01/09 13:11:16;;;;;;;5.10;3.50;;;25.40;42.60;;;;;;6229160;27;81259;-64
2022/01/09 13:14:17;;;;;;;3.97;3.03;;;25.30;42.60;;;;;;6228721;28;80278;-64
2022/01/09 13:17:19;;;;;;;4.60;3.63;;;25.10;42.60;;;;;;6232237;28;83571;-64
2022/01/09 13:20:20;;;;;;;8.32;3.58;;;25.00;43.00;;;;;;6223548;28;81736;-64
2022/01/09 13:23:21;;;;;;;4.93;3.20;;;25.00;43.40;;;;;;6223664;28;81561;-65
2022/01/09 13:26:21;;;;;;;7.75;3.55;;;25.00;43.50;;;;;;6219549;28;81660;-65
2022/01/09 13:29:22;;;;;;;5.07;3.78;;;24.90;43.50;;;;;;6228982;27;81703;-64
2022/01/09 13:32:22;;;;;;;4.53;3.15;;;24.90;43.50;;;;;;6231806;28;82846;-66
2022/01/09 13:35:23;;;;;;;5.13;3.30;;;24.90;43.50;;;;;;6230648;28;80401;-66
2022/01/09 13:38:23;;;;;;;6.10;3.20;;;24.80;43.40;;;;;;6230042;28;80817;-64
2022/01/09 13:41:26;;;;;;;7.40;3.33;;;24.70;43.00;;;;;;6221310;28;80551;-64
2022/01/09 13:44:29;;;;;;;5.65;3.25;;;24.60;43.20;;;;;;6196255;28;81568;-67
2022/01/09 13:47:30;;;;;;;6.50;3.55;;;24.50;42.90;;;;;;6212924;28;83312;-65
2022/01/09 13:50:30;;;;;;;5.78;3.70;;;24.40;42.40;;;;;;6223280;27;80827;-68
2022/01/09 13:53:31;;;;;;;6.45;3.80;;;24.30;41.80;;;;;;6228872;28;81700;-65
2022/01/09 13:56:31;;;;;;;7.28;3.47;;;24.30;41.70;;;;;;6219822;27;80633;-64
2022/01/09 13:59:32;;;;;;;3.70;2.92;;;24.20;41.00;;;;;;6230514;27;80636;-64
2022/01/09 14:02:32;;;;;;;6.45;3.63;;;24.10;41.80;;;;;;6216505;28;80374;-62
2022/01/09 14:05:33;;;;;;;10.20;2.63;;;24.10;41.30;;;;;;6220206;28;81546;-66
2022/01/09 14:08:34;;;;;;;7.40;3.25;;;24.20;41.60;;;;;;6215193;28;81813;-63
2022/01/09 14:11:34;;;;;;;4.88;3.20;;;24.30;40.90;;;;;;6229970;28;80747;-72
2022/01/09 14:14:35;;;;;;;23.40;5.00;;;24.30;40.20;;;;;;6221725;28;80481;-68
2022/01/09 14:17:35;;;;;;;21.20;5.15;;;24.30;39.80;;;;;;6232796;28;82061;-64
2022/01/09 14:20:36;;;;;;;7.05;4.25;;;24.30;39.40;;;;;;6216328;28;80369;-65
2022/01/09 14:23:37;;;;;;;13.30;5.20;;;24.20;39.00;;;;;;6231538;28;81277;-66
2022/01/09 14:26:37;;;;;;;12.82;5.10;;;24.20;38.60;;;;;;6234498;28;83503;-66
2022/01/09 14:29:38;;;;;;;8.85;5.22;;;24.10;38.40;;;;;;6222947;28;81089;-69
2022/01/09 14:32:38;;;;;;;50.33;10.65;;;24.10;37.90;;;;;;6216085;27;80522;-67
2022/01/09 14:35:39;;;;;;;25.45;7.93;;;23.70;32.40;;;;;;6211516;27;83878;-66
2022/01/09 14:38:44;;;;;;;24.98;8.15;;;23.70;34.70;;;;;;6221424;27;82856;-64
2022/01/09 14:41:46;;;;;;;30.75;8.82;;;23.60;34.70;;;;;;6226391;28;80380;-66
2022/01/09 14:44:46;;;;;;;45.85;9.55;;;23.70;34.60;;;;;;6228125;27;81605;-66
2022/01/09 14:47:48;;;;;;;25.45;7.70;;;23.70;34.70;;;;;;6227783;28;80510;-64
2022/01/09 14:50:48;;;;;;;16.50;8.13;;;23.70;34.80;;;;;;6213132;28;80601;-64
2022/01/09 14:53:50;;;;;;;16.83;9.65;;;23.70;35.10;;;;;;6229482;28;81636;-64
2022/01/09 14:56:50;;;;;;;28.88;10.52;;;23.70;36.00;;;;;;6218415;28;81355;-66
2022/01/09 14:59:51;;;;;;;16.63;9.70;;;23.70;36.20;;;;;;6227887;28;82920;-68
2022/01/09 15:02:51;;;;;;;18.80;9.13;;;23.60;37.70;;;;;;6215246;28;81911;-68
2022/01/09 15:05:52;;;;;;;27.30;10.25;;;23.60;38.30;;;;;;6230647;28;81366;-65
2022/01/09 15:08:53;;;;;;;18.83;10.45;;;23.70;38.90;;;;;;6230671;28;83215;-63
2022/01/09 15:11:53;;;;;;;21.23;11.75;;;23.70;39.90;;;;;;6220112;28;83436;-62
2022/01/09 15:14:55;;;;;;;19.55;11.13;;;23.70;39.70;;;;;;6224640;27;83568;-65
2022/01/09 15:17:56;;;;;;;18.50;10.90;;;23.70;41.00;;;;;;6223965;27;83026;-61
2022/01/09 15:20:56;;;;;;;20.83;11.93;;;23.70;41.20;;;;;;6213407;28;84432;-64
2022/01/09 15:23:57;;;;;;;19.13;11.05;;;23.70;41.80;;;;;;6232035;28;83529;-65